Amanda A — WDF9562 — position and weather

sailwx.info

Track history (hours):
 
Tides and Currents Weather Stations Pressure Air Temp Water Temp Dewpoint Dewpoint Depression Visibility Wind Speed Wind Dir Waves Ship Positions

Amanda A

Owner: REC Marine LLC, Galliano, LA. More information available from US FCC via Universal Licensing System.

Last reported at 2018-Feb-23 02:29 UTC. Time now 2018-Feb-23 02:36 UTC.
Position N 29°35' W 090°43'.

Length 6 m; draft 1.9 m.

Type: Tug. MMSI: 367506440.

Date/timePositionNaut miles runAvg speedWind from/ knotsBaromVisibWave heightAir tempDewpointWater temp
2018-Feb-23 02:29N 29°35' W 090°43'3 6.5
2018-Feb-23 02:00N 29°33' W 090°45'4 7.5
2018-Feb-23 01:30N 29°32' W 090°50'1 0.0
2018-Feb-22 03:20N 29°32' W 090°51'2 7.4
2018-Feb-22 03:00N 29°32' W 090°48'3 6.5
2018-Feb-22 02:31N 29°34' W 090°45'2 4.6
2018-Feb-22 02:00N 29°33' W 090°42'4 7.7
2018-Feb-22 01:30N 29°29' W 090°43'8 0.3
2018-Feb-20 23:48N 29°21' W 090°44'2 6.6
2018-Feb-20 23:28N 29°23' W 090°44'3 6.8
2018-Feb-20 22:59N 29°26' W 090°43'3 7.1
2018-Feb-20 22:30N 29°30' W 090°43'3 6.9
2018-Feb-20 22:00N 29°33' W 090°42'2 4.6
2018-Feb-20 21:30N 29°33' W 090°45'3 6.3
2018-Feb-20 21:00N 29°32' W 090°48'7 0.4
2018-Feb-20 03:27N 29°34' W 090°56'4 7.8
2018-Feb-20 02:55N 29°32' W 090°52'3 8.0
2018-Feb-20 02:30N 29°32' W 090°48'3 6.7
2018-Feb-20 02:00N 29°34' W 090°45'3 5.4
2018-Feb-20 01:31N 29°36' W 090°43'2 4.8
2018-Feb-20 01:00N 29°36' W 090°40'2 4.2
2018-Feb-20 00:30N 29°35' W 090°38'3 6.8
2018-Feb-20 00:00N 29°34' W 090°34'4 7.9
2018-Feb-19 23:30N 29°34' W 090°29'  
Track history (hours):
 
Tides and Currents Weather Stations Pressure Air Temp Water Temp Dewpoint Dewpoint Depression Visibility Wind Speed Wind Dir Waves Ship Positions

Amanda A

Owner: REC Marine LLC, Galliano, LA. More information available from US FCC via Universal Licensing System.

Last reported at 2018-Feb-23 02:29 UTC. Time now 2018-Feb-23 02:36 UTC.
Position N 29°35' W 090°43'.

Length 6 m; draft 1.9 m.

Type: Tug. MMSI: 367506440.

Date/timePositionNaut miles runAvg speedWind from/ knotsBaromVisibWave heightAir tempDewpointWater temp
2018-Feb-23 02:29N 29°35' W 090°43'3 6.5
2018-Feb-23 02:00N 29°33' W 090°45'4 7.5
2018-Feb-23 01:30N 29°32' W 090°50'1 0.0
2018-Feb-22 03:20N 29°32' W 090°51'2 7.4
2018-Feb-22 03:00N 29°32' W 090°48'3 6.5
2018-Feb-22 02:31N 29°34' W 090°45'2 4.6
2018-Feb-22 02:00N 29°33' W 090°42'4 7.7
2018-Feb-22 01:30N 29°29' W 090°43'8 0.3
2018-Feb-20 23:48N 29°21' W 090°44'2 6.6
2018-Feb-20 23:28N 29°23' W 090°44'3 6.8
2018-Feb-20 22:59N 29°26' W 090°43'3 7.1
2018-Feb-20 22:30N 29°30' W 090°43'3 6.9
2018-Feb-20 22:00N 29°33' W 090°42'2 4.6
2018-Feb-20 21:30N 29°33' W 090°45'3 6.3
2018-Feb-20 21:00N 29°32' W 090°48'7 0.4
2018-Feb-20 03:27N 29°34' W 090°56'4 7.8
2018-Feb-20 02:55N 29°32' W 090°52'3 8.0
2018-Feb-20 02:30N 29°32' W 090°48'3 6.7
2018-Feb-20 02:00N 29°34' W 090°45'3 5.4
2018-Feb-20 01:31N 29°36' W 090°43'2 4.8
2018-Feb-20 01:00N 29°36' W 090°40'2 4.2
2018-Feb-20 00:30N 29°35' W 090°38'3 6.8
2018-Feb-20 00:00N 29°34' W 090°34'4 7.9
2018-Feb-19 23:30N 29°34' W 090°29'  

Dump ship's entire track history